Time,TemperatureF,DewpointF,PressureIn,WindDirection,WindDirectionDegrees,WindSpeedMPH,WindSpeedGustMPH,Humidity,HourlyPrecipIn,Conditions,Clouds,dailyrainin,SoftwareType,DateUTC
2013-12-14 00:12:00,39.0,25.0,29.95,West,271,1.0,8.0,58,0.00,,,0.00,,2013-12-14 06:12:00,
2013-12-14 00:22:00,39.0,25.0,29.95,West,271,1.0,8.0,58,0.00,,,0.00,,2013-12-14 06:22:00,
2013-12-14 00:42:00,39.0,26.0,29.95,ENE,70,3.0,10.0,60,0.00,,,0.00,,2013-12-14 06:42:00,
2013-12-14 00:52:00,39.0,26.0,29.95,ENE,70,3.0,10.0,60,0.00,,,0.00,,2013-12-14 06:52:00,
2013-12-14 01:12:00,39.0,27.0,29.94,SSE,164,0.0,8.0,62,0.00,,,0.00,,2013-12-14 07:12:00,
2013-12-14 01:22:00,39.0,27.0,29.94,SSE,164,0.0,8.0,62,0.00,,,0.00,,2013-12-14 07:22:00,
2013-12-14 01:42:00,40.0,28.0,29.94,SW,228,5.0,14.0,61,0.00,,,0.00,,2013-12-14 07:42:00,
2013-12-14 01:52:00,40.0,28.0,29.93,WSW,258,9.0,20.0,63,0.00,,,0.00,,2013-12-14 07:52:00,
2013-12-14 02:02:00,40.0,28.0,29.93,WSW,258,9.0,20.0,63,0.00,,,0.00,,2013-12-14 08:02:00,
2013-12-14 02:22:00,40.0,28.0,29.93,SW,220,6.0,17.0,63,0.00,,,0.00,,2013-12-14 08:22:00,
2013-12-14 02:32:00,40.0,28.0,29.93,SW,220,6.0,17.0,63,0.00,,,0.00,,2013-12-14 08:32:00,
2013-12-14 02:42:00,40.0,28.0,29.93,SW,220,6.0,17.0,63,0.00,,,0.00,,2013-12-14 08:42:00,
2013-12-14 02:52:00,41.0,30.0,29.93,WSW,256,6.0,18.0,64,0.00,,,0.00,,2013-12-14 08:52:00,
2013-12-14 03:02:00,41.0,30.0,29.93,WSW,256,6.0,18.0,64,0.00,,,0.00,,2013-12-14 09:02:00,
2013-12-14 03:22:00,41.0,30.0,29.94,SSW,196,6.0,20.0,64,0.00,,,0.00,,2013-12-14 09:22:00,
2013-12-14 03:33:00,41.0,30.0,29.94,SSW,196,6.0,20.0,64,0.00,,,0.00,,2013-12-14 09:33:00,
2013-12-14 03:44:00,41.0,30.0,29.94,SSW,196,6.0,20.0,64,0.00,,,0.00,,2013-12-14 09:44:00,
2013-12-14 03:54:00,40.0,29.0,29.96,WSW,257,3.0,17.0,64,0.00,,,0.00,,2013-12-14 09:54:00,
2013-12-14 04:03:00,40.0,29.0,29.96,WSW,257,3.0,17.0,64,0.00,,,0.00,,2013-12-14 10:03:00,
2013-12-14 04:12:00,40.0,29.0,29.96,WSW,257,3.0,17.0,64,0.00,,,0.00,,2013-12-14 10:12:00,
2013-12-14 04:23:00,39.0,28.0,29.96,SSE,168,2.0,14.0,65,0.00,,,0.00,,2013-12-14 10:23:00,
2013-12-14 04:33:00,39.0,28.0,29.96,SSE,168,2.0,14.0,65,0.00,,,0.00,,2013-12-14 10:33:00,
2013-12-14 04:43:00,39.0,28.0,29.96,SSE,168,2.0,14.0,65,0.00,,,0.00,,2013-12-14 10:43:00,
2013-12-14 04:53:00,39.0,29.0,29.99,SW,230,2.0,12.0,66,0.00,,,0.00,,2013-12-14 10:53:00,
2013-12-14 05:03:00,39.0,29.0,29.99,SW,230,2.0,12.0,66,0.00,,,0.00,,2013-12-14 11:03:00,
2013-12-14 05:11:00,39.0,29.0,29.99,SW,230,2.0,12.0,66,0.00,,,0.00,,2013-12-14 11:11:00,
2013-12-14 05:23:00,39.0,29.0,30.00,South,186,2.0,12.0,67,0.00,,,0.00,,2013-12-14 11:23:00,
2013-12-14 05:33:00,39.0,29.0,30.00,South,186,2.0,12.0,67,0.00,,,0.00,,2013-12-14 11:33:00,
2013-12-14 05:42:00,39.0,29.0,30.00,South,186,2.0,12.0,67,0.00,,,0.00,,2013-12-14 11:42:00,
2013-12-14 05:53:00,38.0,28.0,30.05,SSW,192,1.0,8.0,68,0.00,,,0.00,,2013-12-14 11:53:00,
2013-12-14 06:01:00,38.0,28.0,30.05,SSW,192,1.0,8.0,68,0.00,,,0.00,,2013-12-14 12:01:00,
2013-12-14 06:12:00,38.0,28.0,30.05,SSW,192,1.0,8.0,68,0.00,,,0.00,,2013-12-14 12:12:00,
2013-12-14 06:22:00,37.0,28.0,30.06,NNW,330,1.0,13.0,70,0.00,,,0.00,,2013-12-14 12:22:00,
2013-12-14 06:32:00,37.0,28.0,30.06,NNW,330,1.0,13.0,70,0.00,,,0.00,,2013-12-14 12:32:00,
2013-12-14 06:42:00,37.0,28.0,30.06,NNW,330,1.0,13.0,70,0.00,,,0.00,,2013-12-14 12:42:00,
2013-12-14 06:53:00,36.0,28.0,30.10,SW,224,3.0,13.0,72,0.00,,,0.00,,2013-12-14 12:53:00,
2013-12-14 07:11:00,36.0,28.0,30.10,SW,224,3.0,13.0,72,0.00,,,0.00,,2013-12-14 13:11:00,
2013-12-14 07:22:00,32.0,26.0,30.16,SW,224,2.0,3.0,79,0.00,,,0.00,,2013-12-14 13:22:00,
2013-12-14 07:32:00,32.0,26.0,30.16,SW,224,2.0,3.0,79,0.00,,,0.00,,2013-12-14 13:32:00,
2013-12-14 07:42:00,32.0,26.0,30.16,SW,224,2.0,3.0,79,0.00,,,0.00,,2013-12-14 13:42:00,
2013-12-14 07:52:00,30.0,25.0,30.19,SW,224,1.0,5.0,81,0.00,,,0.00,,2013-12-14 13:52:00,
2013-12-14 08:01:00,30.0,25.0,30.19,SW,224,1.0,5.0,81,0.00,,,0.00,,2013-12-14 14:01:00,
2013-12-14 08:11:00,30.0,25.0,30.19,SW,224,1.0,5.0,81,0.00,,,0.00,,2013-12-14 14:11:00,
2013-12-14 08:22:00,29.0,24.0,30.22,SE,138,2.0,3.0,80,0.00,,,0.00,,2013-12-14 14:22:00,
2013-12-14 08:32:00,29.0,24.0,30.22,SE,138,2.0,3.0,80,0.00,,,0.00,,2013-12-14 14:32:00,
2013-12-14 08:42:00,29.0,24.0,30.22,SE,138,2.0,3.0,80,0.00,,,0.00,,2013-12-14 14:42:00,
2013-12-14 08:52:00,32.0,21.0,30.22,SE,124,1.0,6.0,64,0.00,,,0.00,,2013-12-14 14:52:00,
2013-12-14 09:02:00,32.0,21.0,30.22,SE,124,1.0,6.0,64,0.00,,,0.00,,2013-12-14 15:02:00,
2013-12-14 09:11:00,32.0,21.0,30.22,SE,124,1.0,6.0,64,0.00,,,0.00,,2013-12-14 15:11:00,
2013-12-14 09:22:00,37.0,20.0,30.22,NE,34,2.0,7.0,49,0.00,,,0.00,,2013-12-14 15:22:00,
2013-12-14 09:33:00,37.0,20.0,30.22,NE,34,2.0,7.0,49,0.00,,,0.00,,2013-12-14 15:33:00,
2013-12-14 09:44:00,37.0,20.0,30.22,NE,34,2.0,7.0,49,0.00,,,0.00,,2013-12-14 15:44:00,
2013-12-14 09:54:00,36.0,18.0,30.24,NNW,340,2.0,12.0,47,0.00,,,0.00,,2013-12-14 15:54:00,
2013-12-14 10:04:00,36.0,18.0,30.24,NNW,340,2.0,12.0,47,0.00,,,0.00,,2013-12-14 16:04:00,
2013-12-14 10:13:00,36.0,18.0,30.24,NNW,340,2.0,12.0,47,0.00,,,0.00,,2013-12-14 16:13:00,
2013-12-14 10:23:00,38.0,18.0,30.24,North,356,2.0,7.0,44,0.00,,,0.00,,2013-12-14 16:23:00,
2013-12-14 10:33:00,38.0,18.0,30.24,North,356,2.0,7.0,44,0.00,,,0.00,,2013-12-14 16:33:00,
2013-12-14 10:43:00,38.0,18.0,30.24,North,356,2.0,7.0,44,0.00,,,0.00,,2013-12-14 16:43:00,
2013-12-14 10:53:00,39.0,17.0,30.25,North,10,3.0,7.0,41,0.00,,,0.00,,2013-12-14 16:53:00,
2013-12-14 11:03:00,39.0,17.0,30.25,North,10,3.0,7.0,41,0.00,,,0.00,,2013-12-14 17:03:00,
2013-12-14 11:12:00,39.0,17.0,30.25,North,10,3.0,7.0,41,0.00,,,0.00,,2013-12-14 17:12:00,
2013-12-14 11:23:00,40.0,17.0,30.26,ENE,62,3.0,9.0,39,0.00,,,0.00,,2013-12-14 17:23:00,
2013-12-14 11:33:00,40.0,17.0,30.26,ENE,62,3.0,9.0,39,0.00,,,0.00,,2013-12-14 17:33:00,
2013-12-14 11:42:00,40.0,17.0,30.26,ENE,62,3.0,9.0,39,0.00,,,0.00,,2013-12-14 17:42:00,
2013-12-14 11:53:00,40.0,17.0,30.26,ENE,62,3.0,9.0,39,0.00,,,0.00,,2013-12-14 17:53:00,
2013-12-14 12:12:00,41.0,20.0,30.26,North,0,4.0,12.0,42,0.00,,,0.00,,2013-12-14 18:12:00,
2013-12-14 12:22:00,41.0,20.0,30.26,North,0,4.0,12.0,42,0.00,,,0.00,,2013-12-14 18:22:00,
2013-12-14 12:42:00,41.0,18.0,30.24,NNW,339,1.0,10.0,39,0.00,,,0.00,,2013-12-14 18:42:00,
2013-12-14 12:52:00,41.0,18.0,30.24,NNW,339,1.0,10.0,39,0.00,,,0.00,,2013-12-14 18:52:00,
2013-12-14 13:12:00,41.0,15.0,30.24,North,353,3.0,10.0,35,0.00,,,0.00,,2013-12-14 19:12:00,
2013-12-14 13:22:00,41.0,15.0,30.24,North,353,3.0,10.0,35,0.00,,,0.00,,2013-12-14 19:22:00,
2013-12-14 13:42:00,43.0,16.0,30.22,ENE,59,4.0,9.0,33,0.00,,,0.00,,2013-12-14 19:42:00,
2013-12-14 13:52:00,43.0,16.0,30.22,ENE,59,4.0,9.0,33,0.00,,,0.00,,2013-12-14 19:52:00,
2013-12-14 14:11:00,43.0,17.0,30.22,East,79,6.0,12.0,34,0.00,,,0.00,,2013-12-14 20:11:00,
2013-12-14 14:22:00,43.0,17.0,30.22,East,79,6.0,12.0,34,0.00,,,0.00,,2013-12-14 20:22:00,
2013-12-14 14:42:00,43.0,17.0,30.21,ENE,62,4.0,10.0,35,0.00,,,0.00,,2013-12-14 20:42:00,
2013-12-14 14:54:00,43.0,17.0,30.21,ENE,62,4.0,10.0,35,0.00,,,0.00,,2013-12-14 20:54:00,
2013-12-14 15:11:00,44.0,18.0,30.21,NE,41,1.0,9.0,35,0.00,,,0.00,,2013-12-14 21:11:00,
2013-12-14 15:22:00,44.0,18.0,30.21,NE,41,1.0,9.0,35,0.00,,,0.00,,2013-12-14 21:22:00,
2013-12-14 15:44:00,44.0,18.0,30.22,North,0,2.0,10.0,35,0.00,,,0.00,,2013-12-14 21:44:00,
2013-12-14 15:54:00,44.0,18.0,30.22,North,0,2.0,10.0,35,0.00,,,0.00,,2013-12-14 21:54:00,
2013-12-14 16:13:00,42.0,16.0,30.24,North,349,2.0,12.0,35,0.00,,,0.00,,2013-12-14 22:13:00,
2013-12-14 16:23:00,42.0,16.0,30.24,North,349,2.0,12.0,35,0.00,,,0.00,,2013-12-14 22:23:00,
2013-12-14 16:43:00,42.0,17.0,30.24,NE,40,2.0,10.0,36,0.00,,,0.00,,2013-12-14 22:43:00,
2013-12-14 16:52:00,42.0,17.0,30.24,NE,40,2.0,10.0,36,0.00,,,0.00,,2013-12-14 22:52:00,
2013-12-14 17:12:00,41.0,16.0,30.24,NNE,31,2.0,6.0,36,0.00,,,0.00,,2013-12-14 23:12:00,
2013-12-14 17:22:00,41.0,16.0,30.24,NNE,31,2.0,6.0,36,0.00,,,0.00,,2013-12-14 23:22:00,
2013-12-14 17:43:00,40.0,16.0,30.27,East,90,1.0,6.0,38,0.00,,,0.00,,2013-12-14 23:43:00,
2013-12-14 17:53:00,40.0,16.0,30.27,East,90,1.0,6.0,38,0.00,,,0.00,,2013-12-14 23:53:00,
2013-12-14 18:11:00,37.0,17.0,30.30,NE,44,1.0,6.0,44,0.00,,,0.00,,2013-12-15 00:11:00,
2013-12-14 18:22:00,37.0,17.0,30.30,NE,44,1.0,6.0,44,0.00,,,0.00,,2013-12-15 00:22:00,
2013-12-14 18:42:00,33.0,18.0,30.34,NE,44,1.0,2.0,54,0.00,,,0.00,,2013-12-15 00:42:00,
2013-12-14 18:52:00,33.0,18.0,30.34,NE,44,1.0,2.0,54,0.00,,,0.00,,2013-12-15 00:52:00,
2013-12-14 19:11:00,27.0,16.0,30.42,NE,44,0.0,2.0,63,0.00,,,0.00,,2013-12-15 01:11:00,
2013-12-14 19:21:00,27.0,16.0,30.42,NE,44,0.0,2.0,63,0.00,,,0.00,,2013-12-15 01:21:00,
2013-12-14 19:42:00,25.0,16.0,30.45,NE,44,0.0,1.0,67,0.00,,,0.00,,2013-12-15 01:42:00,
2013-12-14 20:11:00,24.0,15.0,30.48,NE,44,0.0,0.0,69,0.00,,,0.00,,2013-12-15 02:11:00,
2013-12-14 20:42:00,23.0,15.0,30.50,NE,44,0.0,0.0,72,0.00,,,0.00,,2013-12-15 02:42:00,
2013-12-14 21:12:00,22.0,15.0,30.46,NE,44,0.0,2.0,74,0.00,,,0.00,,2013-12-15 03:12:00,
2013-12-14 21:43:00,21.0,15.0,30.48,NE,44,1.0,3.0,77,0.00,,,0.00,,2013-12-15 03:43:00,
2013-12-14 22:02:00,-999.0,-99.9,30.47,NE,44,1.0,2.0,-999,0.00,,,0.00,,2013-12-15 04:02:00,
2013-12-14 22:13:00,20.0,15.0,30.47,NE,44,1.0,2.0,79,0.00,,,0.00,,2013-12-15 04:13:00,
2013-12-14 22:43:00,19.0,14.0,30.47,NE,44,0.0,2.0,81,0.00,,,0.00,,2013-12-15 04:43:00,
2013-12-14 23:12:00,18.0,14.0,30.47,NE,44,2.0,3.0,83,0.00,,,0.00,,2013-12-15 05:12:00,
2013-12-14 23:42:00,18.0,14.0,30.48,NE,44,0.0,2.0,83,0.00,,,0.00,,2013-12-15 05:42:00,